createdAt,value
2019-05-20T07:11:01.537Z,998.08
2019-05-20T07:12:01.440Z,998.12
2019-05-20T07:13:01.351Z,998.14
2019-05-20T07:14:01.259Z,998.09
2019-05-20T07:15:01.188Z,998.08
2019-05-20T07:16:01.086Z,998.12
2019-05-20T07:17:01.040Z,998.10
2019-05-20T07:18:00.978Z,998.10
2019-05-20T07:19:00.819Z,998.12
2019-05-20T07:20:00.730Z,998.10
2019-05-20T07:21:00.641Z,998.09
2019-05-20T07:22:00.560Z,998.08
2019-05-20T07:23:00.469Z,998.08
2019-05-20T07:24:00.376Z,998.12
2019-05-20T07:25:00.300Z,998.18
2019-05-20T07:26:00.202Z,998.20
2019-05-20T07:27:00.108Z,998.19
2019-05-20T07:28:00.019Z,998.10
2019-05-20T07:28:59.946Z,998.12
2019-05-20T07:29:59.854Z,998.14
2019-05-20T07:30:59.759Z,998.17
2019-05-20T07:31:59.674Z,998.15
2019-05-20T07:32:59.582Z,998.16
2019-05-20T07:33:59.509Z,998.15
2019-05-20T07:34:59.414Z,998.12
2019-05-20T07:35:59.325Z,998.07
2019-05-20T07:37:03.073Z,998.12
2019-05-20T07:37:59.147Z,998.15
2019-05-20T07:38:59.059Z,998.15
2019-05-20T07:39:59.020Z,998.14
2019-05-20T07:40:58.958Z,998.10
2019-05-20T07:41:58.809Z,998.13
2019-05-20T07:42:58.712Z,998.12
2019-05-20T07:43:58.624Z,998.11
2019-05-20T07:44:58.538Z,998.05
2019-05-20T07:45:58.449Z,998.04
2019-05-20T07:46:58.374Z,998.06
2019-05-20T07:47:58.280Z,998.08
2019-05-20T07:48:58.235Z,998.03
2019-05-20T07:49:58.099Z,998.02
2019-05-20T07:50:58.017Z,998.00
2019-05-20T07:51:57.991Z,997.99
2019-05-20T07:53:00.461Z,997.94
2019-05-20T07:53:57.769Z,997.91
2019-05-20T07:54:57.664Z,997.91
2019-05-20T07:55:57.577Z,997.89
2019-05-20T07:56:57.494Z,997.86
2019-05-20T07:57:57.402Z,997.85
2019-05-20T07:58:57.311Z,997.82
2019-05-20T07:59:57.226Z,997.83
2019-05-20T08:00:57.135Z,997.80
2019-05-20T08:01:57.047Z,997.81
2019-05-20T08:02:57.003Z,997.78
2019-05-20T08:11:56.151Z,997.78
2019-05-20T08:12:56.059Z,997.76
2019-05-20T08:13:55.969Z,997.75
2019-05-20T08:14:55.881Z,997.76
2019-05-20T08:15:55.788Z,997.79
2019-05-20T08:16:55.700Z,997.76
2019-05-20T08:17:55.615Z,997.74
2019-05-20T08:18:55.544Z,997.74
2019-05-20T08:19:55.426Z,997.71
2019-05-20T08:20:55.346Z,997.73
2019-05-20T08:21:55.242Z,997.73
2019-05-20T08:22:55.148Z,997.74
2019-05-20T08:23:55.072Z,997.69
2019-05-20T08:24:54.966Z,997.74
2019-05-20T08:25:54.922Z,997.77
2019-05-20T08:26:54.782Z,997.74
2019-05-20T08:27:54.689Z,997.74
2019-05-20T08:28:54.760Z,997.78
2019-05-20T08:29:54.513Z,997.81
2019-05-20T08:30:54.428Z,997.91
2019-05-20T08:31:54.321Z,997.98
2019-05-20T08:32:54.231Z,997.94
2019-05-20T08:35:53.973Z,997.98
2019-05-20T08:36:53.862Z,998.06
2019-05-20T08:37:53.769Z,998.01
2019-05-20T08:38:53.675Z,998.04
2019-05-20T08:39:53.585Z,998.05
2019-05-20T08:40:53.503Z,998.03
2019-05-20T08:41:53.395Z,998.02
2019-05-20T08:42:53.302Z,998.03
2019-05-20T08:43:53.219Z,998.03
2019-05-20T08:44:53.120Z,998.00
2019-05-20T08:45:53.027Z,997.99
2019-05-20T08:46:52.933Z,998.02
2019-05-20T08:47:52.865Z,997.94
2019-05-20T08:48:52.752Z,997.95
2019-05-20T08:49:52.845Z,997.97
2019-05-20T08:50:52.568Z,997.98
2019-05-20T08:51:52.481Z,997.92
2019-05-20T08:52:52.391Z,997.84
2019-05-20T08:53:52.301Z,997.91
2019-05-20T08:54:52.217Z,998.00
2019-05-20T08:55:52.119Z,997.90
2019-05-20T08:56:52.039Z,997.89
2019-05-20T08:57:51.979Z,997.89
2019-05-20T08:58:51.847Z,997.88
2019-05-20T08:59:51.770Z,997.90
2019-05-20T09:00:51.678Z,997.92
2019-05-20T09:01:51.582Z,997.87
2019-05-20T09:02:51.497Z,997.80
2019-05-20T09:03:51.407Z,997.86
2019-05-20T09:04:51.320Z,997.85
2019-05-20T09:05:51.232Z,997.88
2019-05-20T09:06:51.171Z,997.86
2019-05-20T09:08:02.201Z,997.89
2019-05-20T09:08:50.968Z,997.86
2019-05-20T09:09:50.938Z,997.97
2019-05-20T09:10:50.905Z,997.87
2019-05-20T09:11:50.709Z,997.81
2019-05-20T09:12:50.621Z,997.82
2019-05-20T09:13:50.540Z,997.85
2019-05-20T09:14:50.466Z,997.75
2019-05-20T09:15:50.366Z,997.96
2019-05-20T09:16:50.284Z,997.85
2019-05-20T09:17:50.192Z,997.82
2019-05-20T09:18:50.105Z,997.78
2019-05-20T09:19:50.025Z,997.75
2019-05-20T09:20:49.940Z,997.79
2019-05-20T09:21:49.850Z,997.77
2019-05-20T09:22:49.810Z,997.76
2019-05-20T09:23:49.699Z,997.67
2019-05-20T09:24:49.737Z,997.67
2019-05-20T09:25:49.509Z,997.69
2019-05-20T09:26:49.426Z,997.66
2019-05-20T09:27:49.339Z,997.66
2019-05-20T09:28:49.262Z,997.70
2019-05-20T09:29:49.204Z,997.73
2019-05-20T09:30:49.082Z,997.72
2019-05-20T09:31:49.002Z,997.76
2019-05-20T09:32:48.914Z,997.71
2019-05-20T09:33:48.890Z,997.67
2019-05-20T09:34:48.801Z,997.63
2019-05-20T09:35:48.733Z,997.61
2019-05-20T09:36:48.622Z,997.60
2019-05-20T09:37:48.501Z,997.59
2019-05-20T09:38:48.417Z,997.68
2019-05-20T09:39:48.338Z,997.65
2019-05-20T09:40:48.281Z,997.55
2019-05-20T09:41:48.164Z,997.51
2019-05-20T09:42:48.070Z,997.50
2019-05-20T09:43:48.014Z,997.53
2019-05-20T09:44:47.903Z,997.55
2019-05-20T09:46:04.168Z,997.57
2019-05-20T09:46:47.734Z,997.54
2019-05-20T09:47:47.649Z,997.48
2019-05-20T09:48:47.569Z,997.48
2019-05-20T09:49:47.483Z,997.58
2019-05-20T09:50:47.396Z,997.53
2019-05-20T09:51:47.310Z,997.51
2019-05-20T09:52:47.229Z,997.48
2019-05-20T09:53:47.146Z,997.48
2019-05-20T09:54:47.059Z,997.59
2019-05-20T09:55:46.973Z,997.54
2019-05-20T09:56:46.895Z,997.47
2019-05-20T09:57:46.848Z,997.54
2019-05-20T09:58:46.776Z,997.50
2019-05-20T09:59:46.641Z,997.45
2019-05-20T10:00:46.554Z,997.38
2019-05-20T10:01:46.474Z,997.45
2019-05-20T10:02:46.383Z,997.37
2019-05-20T10:03:46.302Z,997.37
2019-05-20T10:04:46.221Z,997.48
2019-05-20T10:05:46.133Z,997.50
2019-05-20T10:06:46.050Z,997.59
2019-05-20T10:07:45.967Z,997.48
2019-05-20T10:08:45.883Z,997.47
2019-05-20T10:09:45.800Z,997.47
2019-05-20T10:10:45.715Z,997.48
2019-05-20T10:11:45.629Z,997.42
2019-05-20T10:12:47.100Z,997.38
2019-05-20T10:13:45.464Z,997.39
2019-05-20T10:14:45.385Z,997.39
2019-05-20T10:15:45.300Z,997.41
2019-05-20T10:16:45.211Z,997.38
2019-05-20T10:17:45.132Z,997.41
2019-05-20T10:18:45.048Z,997.41
2019-05-20T10:19:44.960Z,997.28
2019-05-20T10:20:44.881Z,997.33
2019-05-20T10:21:44.820Z,997.41
2019-05-20T10:22:44.786Z,997.40
2019-05-20T10:23:44.632Z,997.40
2019-05-20T10:24:44.554Z,997.39
2019-05-20T10:25:44.466Z,997.32
2019-05-20T10:26:44.383Z,997.44
2019-05-20T10:27:44.300Z,997.43
2019-05-20T10:29:44.145Z,997.32
2019-05-20T10:30:44.068Z,997.47
2019-05-20T10:31:43.965Z,997.40
2019-05-20T10:32:43.906Z,997.33
2019-05-20T10:33:43.807Z,997.28
2019-05-20T10:34:43.724Z,997.28
2019-05-20T10:35:43.641Z,997.27
2019-05-20T10:36:43.595Z,997.29
2019-05-20T10:37:43.477Z,997.30
2019-05-20T10:38:58.173Z,997.33
2019-05-20T10:39:43.313Z,997.24
2019-05-20T10:40:43.232Z,997.25
2019-05-20T10:41:43.149Z,997.33
2019-05-20T10:42:43.069Z,997.24
2019-05-20T10:43:42.985Z,997.20
2019-05-20T10:44:42.905Z,997.20
2019-05-20T10:45:42.822Z,997.27
2019-05-20T10:46:42.787Z,997.42
2019-05-20T10:47:42.716Z,997.30
2019-05-20T10:48:42.578Z,997.26
2019-05-20T10:49:42.492Z,997.25
2019-05-20T10:50:42.406Z,997.21
2019-05-20T10:51:42.327Z,997.38
2019-05-20T10:52:42.247Z,997.24
2019-05-20T10:53:42.160Z,997.32
2019-05-20T10:54:42.078Z,997.27
2019-05-20T10:55:41.994Z,997.08
2019-05-20T10:56:41.914Z,997.13
2019-05-20T10:57:41.831Z,997.30
2019-05-20T10:58:41.748Z,997.23
2019-05-20T10:59:41.663Z,997.29
2019-05-20T11:01:00.205Z,997.22
2019-05-20T11:01:41.499Z,997.33
2019-05-20T11:02:41.416Z,997.25
2019-05-20T11:03:41.332Z,997.15
2019-05-20T11:04:41.256Z,997.25
2019-05-20T11:05:41.168Z,997.16
2019-05-20T11:07:41.018Z,997.14
2019-05-20T11:08:40.917Z,997.14
2019-05-20T11:09:40.830Z,997.13
2019-05-20T11:10:40.768Z,997.11
2019-05-20T11:11:40.683Z,997.14
2019-05-20T11:12:40.576Z,997.13
2019-05-20T11:13:40.486Z,997.14
2019-05-20T11:14:40.404Z,997.11
